Time;durP1;ratioP1;P1;durP2;ratioP2;P2;SDS_P1;SDS_P2;PMS_P1;PMS_P2;Temp;Humidity;BMP_temperature;BMP_pressure;BME280_temperature;BME280_humidity;BME280_pressure;Samples;Min_cycle;Max_cycle;Signal;HPM_P1;HPM_P2
2021/09/08 00:01:28;;;;;;;12.75;10.68;;;;;;;;;;5034456;28;20506;-59
2021/09/08 00:03:54;;;;;;;10.85;9.35;;;;;;;;;;5034477;28;20029;-59
2021/09/08 00:06:20;;;;;;;10.80;9.70;;;;;;;;;;5016103;28;20524;-59
2021/09/08 00:08:46;;;;;;;9.98;8.95;;;;;;;;;;5034394;28;20033;-59
2021/09/08 00:11:12;;;;;;;12.15;10.38;;;;;;;;;;5016673;28;20021;-59
2021/09/08 00:13:38;;;;;;;12.75;9.75;;;;;;;;;;5033438;28;20053;-58
2021/09/08 00:16:04;;;;;;;12.43;10.60;;;;;;;;;;5033683;28;20033;-58
2021/09/08 00:18:30;;;;;;;11.05;8.90;;;;;;;;;;5016800;28;20112;-59
2021/09/08 00:20:56;;;;;;;14.10;10.20;;;;;;;;;;5033751;28;20442;-59
2021/09/08 00:23:22;;;;;;;10.00;9.00;;;;;;;;;;5033870;28;20412;-58
2021/09/08 00:25:48;;;;;;;12.15;10.77;;;;;;;;;;5034066;28;20364;-59
2021/09/08 00:28:14;;;;;;;13.80;10.60;;;;;;;;;;5034043;28;20440;-59
2021/09/08 00:30:40;;;;;;;11.95;9.85;;;;;;;;;;5033088;28;20056;-59
2021/09/08 00:33:06;;;;;;;12.55;11.25;;;;;;;;;;5033714;28;20025;-59
2021/09/08 00:35:32;;;;;;;17.20;11.52;;;;;;;;;;5033756;28;20539;-59
2021/09/08 00:37:58;;;;;;;13.43;11.63;;;;;;;;;;5033319;28;20112;-58
2021/09/08 00:40:24;;;;;;;13.15;10.27;;;;;;;;;;5032986;28;20030;-58
2021/09/08 00:42:51;;;;;;;13.32;10.15;;;;;;;;;;5033928;28;20032;-58
2021/09/08 00:45:17;;;;;;;11.25;10.02;;;;;;;;;;5033386;28;20025;-58
2021/09/08 00:47:43;;;;;;;13.43;11.38;;;;;;;;;;5033374;28;20025;-58
2021/09/08 00:50:10;;;;;;;17.75;10.75;;;;;;;;;;5033898;28;20401;-58
2021/09/08 00:52:37;;;;;;;11.27;10.15;;;;;;;;;;5033814;28;20044;-58
2021/09/08 00:55:04;;;;;;;10.90;9.82;;;;;;;;;;5033631;28;20021;-58
2021/09/08 00:57:30;;;;;;;11.10;9.50;;;;;;;;;;5034354;28;20321;-58
2021/09/08 00:59:56;;;;;;;15.88;10.65;;;;;;;;;;5033533;28;20029;-58
2021/09/08 01:02:22;;;;;;;12.18;9.80;;;;;;;;;;5033435;28;20452;-58
2021/09/08 01:04:48;;;;;;;12.75;10.05;;;;;;;;;;5015768;28;20080;-58
2021/09/08 01:07:14;;;;;;;13.45;10.85;;;;;;;;;;5033480;28;20076;-58
2021/09/08 01:09:41;;;;;;;12.45;10.13;;;;;;;;;;5033232;28;20048;-58
2021/09/08 01:12:07;;;;;;;10.90;9.70;;;;;;;;;;5033305;28;20429;-58
2021/09/08 01:14:33;;;;;;;11.60;10.10;;;;;;;;;;5033559;28;20045;-58
2021/09/08 01:16:59;;;;;;;11.40;9.75;;;;;;;;;;5035202;28;20112;-58
2021/09/08 01:19:26;;;;;;;13.13;10.57;;;;;;;;;;5036923;28;20407;-58
2021/09/08 01:21:52;;;;;;;15.02;11.68;;;;;;;;;;5036991;28;20028;-58
2021/09/08 01:24:18;;;;;;;13.30;12.00;;;;;;;;;;5036861;28;20028;-58
2021/09/08 01:26:46;;;;;;;14.23;12.52;;;;;;;;;;5036456;28;20483;-58
2021/09/08 01:29:12;;;;;;;13.18;11.90;;;;;;;;;;5037420;28;20467;-58
2021/09/08 01:31:38;;;;;;;18.50;13.00;;;;;;;;;;5037118;28;20068;-58
2021/09/08 01:34:05;;;;;;;11.60;10.40;;;;;;;;;;5037053;28;20021;-58
2021/09/08 01:36:38;;;;;;;11.35;10.23;;;;;;;;;;5036383;28;20044;-58
2021/09/08 01:39:04;;;;;;;14.00;11.73;;;;;;;;;;5036569;28;20036;-58
2021/09/08 01:41:30;;;;;;;13.45;11.18;;;;;;;;;;5036500;28;20108;-58
2021/09/08 01:43:56;;;;;;;13.70;11.85;;;;;;;;;;5036591;28;20061;-58
2021/09/08 01:46:23;;;;;;;12.38;10.95;;;;;;;;;;5036421;28;20076;-58
2021/09/08 01:48:49;;;;;;;12.65;11.15;;;;;;;;;;5036465;28;20033;-58
2021/09/08 01:51:17;;;;;;;13.43;10.25;;;;;;;;;;5036520;28;20033;-58
2021/09/08 01:53:43;;;;;;;12.65;10.95;;;;;;;;;;5036287;28;20028;-58
2021/09/08 01:56:10;;;;;;;11.52;10.32;;;;;;;;;;5035779;28;20142;-58
2021/09/08 01:58:36;;;;;;;12.13;10.48;;;;;;;;;;5035969;28;20030;-58
2021/09/08 02:01:03;;;;;;;14.20;10.27;;;;;;;;;;5036371;28;20040;-58
2021/09/08 02:03:29;;;;;;;12.93;10.50;;;;;;;;;;5036170;28;20502;-58
2021/09/08 02:05:55;;;;;;;10.75;9.35;;;;;;;;;;5035628;28;20065;-58
2021/09/08 02:08:21;;;;;;;14.05;10.35;;;;;;;;;;5036642;28;20443;-58
2021/09/08 02:10:47;;;;;;;11.57;10.38;;;;;;;;;;5035946;28;20022;-58
2021/09/08 02:13:13;;;;;;;12.10;10.65;;;;;;;;;;5035808;28;20057;-58
2021/09/08 02:15:39;;;;;;;11.90;9.52;;;;;;;;;;5035981;28;20025;-58
2021/09/08 02:18:05;;;;;;;13.55;9.60;;;;;;;;;;5036404;28;20087;-58
2021/09/08 02:20:31;;;;;;;11.13;10.00;;;;;;;;;;5035811;28;20072;-58
2021/09/08 02:22:57;;;;;;;12.25;10.88;;;;;;;;;;5036111;28;20526;-58
2021/09/08 02:25:23;;;;;;;11.52;10.15;;;;;;;;;;5035718;28;20029;-58
2021/09/08 02:27:51;;;;;;;13.07;10.32;;;;;;;;;;5035576;28;20444;-58
2021/09/08 02:30:19;;;;;;;9.75;8.35;;;;;;;;;;5035642;28;20468;-58
2021/09/08 02:32:45;;;;;;;14.98;11.13;;;;;;;;;;5035882;28;20108;-58
2021/09/08 02:35:11;;;;;;;14.98;11.65;;;;;;;;;;5035478;28;20053;-58
2021/09/08 02:37:37;;;;;;;15.77;11.88;;;;;;;;;;5035299;28;20034;-58
2021/09/08 02:40:04;;;;;;;11.88;10.60;;;;;;;;;;5017612;28;20029;-58
2021/09/08 02:42:30;;;;;;;15.52;12.02;;;;;;;;;;5035829;28;20060;-58
2021/09/08 02:44:56;;;;;;;11.95;10.32;;;;;;;;;;5018551;28;20451;-58
2021/09/08 02:47:21;;;;;;;12.73;11.20;;;;;;;;;;5035575;28;20034;-58
2021/09/08 02:49:47;;;;;;;12.23;10.77;;;;;;;;;;5035489;28;20049;-58
2021/09/08 02:52:13;;;;;;;14.10;10.52;;;;;;;;;;5035340;28;20032;-58
2021/09/08 02:54:39;;;;;;;12.45;11.30;;;;;;;;;;5035209;28;20021;-59
2021/09/08 02:57:05;;;;;;;13.45;12.05;;;;;;;;;;5035364;28;20029;-59
2021/09/08 02:59:31;;;;;;;14.27;12.48;;;;;;;;;;5035132;28;20041;-59
2021/09/08 03:01:58;;;;;;;13.57;11.82;;;;;;;;;;5035404;28;20060;-58
2021/09/08 03:04:24;;;;;;;14.65;11.48;;;;;;;;;;5034714;28;20032;-59
2021/09/08 03:06:50;;;;;;;15.38;12.77;;;;;;;;;;5035000;28;20033;-59
2021/09/08 03:09:16;;;;;;;15.50;12.65;;;;;;;;;;5035691;28;20156;-58
2021/09/08 03:11:43;;;;;;;14.75;11.98;;;;;;;;;;5034835;28;20478;-59
2021/09/08 03:14:09;;;;;;;14.63;13.10;;;;;;;;;;5035484;28;20052;-59
2021/09/08 03:16:35;;;;;;;15.15;12.40;;;;;;;;;;5034659;28;20029;-58
2021/09/08 03:19:01;;;;;;;15.43;12.48;;;;;;;;;;5034962;28;20040;-58
2021/09/08 03:21:27;;;;;;;12.02;10.82;;;;;;;;;;5034612;28;20057;-59
2021/09/08 03:23:53;;;;;;;13.93;11.98;;;;;;;;;;5035196;28;20025;-59
2021/09/08 03:26:19;;;;;;;14.95;12.18;;;;;;;;;;5034813;28;20054;-59
2021/09/08 03:28:45;;;;;;;17.75;12.82;;;;;;;;;;5034536;28;20072;-59
2021/09/08 03:31:12;;;;;;;10.98;9.88;;;;;;;;;;5034778;28;20065;-59
2021/09/08 03:33:38;;;;;;;12.73;11.43;;;;;;;;;;5034786;28;20025;-59
2021/09/08 03:36:04;;;;;;;15.27;11.88;;;;;;;;;;5034140;28;20040;-59
2021/09/08 03:38:30;;;;;;;12.38;9.82;;;;;;;;;;5016683;28;20388;-59
2021/09/08 03:40:56;;;;;;;14.13;11.48;;;;;;;;;;5033763;28;20032;-59
2021/09/08 03:43:22;;;;;;;11.82;10.57;;;;;;;;;;5034568;28;20021;-58
2021/09/08 03:45:48;;;;;;;15.68;11.35;;;;;;;;;;5034284;28;20353;-59
2021/09/08 03:48:14;;;;;;;13.57;10.70;;;;;;;;;;5034224;28;20021;-58
2021/09/08 03:50:40;;;;;;;12.68;10.23;;;;;;;;;;5034194;28;20091;-58
2021/09/08 03:53:06;;;;;;;13.27;10.38;;;;;;;;;;5034236;28;20426;-59
2021/09/08 03:55:32;;;;;;;11.25;10.10;;;;;;;;;;5015968;28;20056;-59
2021/09/08 03:57:58;;;;;;;13.30;10.60;;;;;;;;;;5034648;28;20030;-59
2021/09/08 04:00:24;;;;;;;12.15;10.95;;;;;;;;;;5034038;28;20033;-59
2021/09/08 04:02:50;;;;;;;12.98;10.30;;;;;;;;;;5034086;28;20253;-58
2021/09/08 04:05:16;;;;;;;13.75;11.25;;;;;;;;;;5033908;28;20056;-58
2021/09/08 04:07:42;;;;;;;15.43;10.95;;;;;;;;;;5016145;28;20041;-58
2021/09/08 04:10:08;;;;;;;11.43;10.23;;;;;;;;;;5016508;28;20479;-59
2021/09/08 04:12:34;;;;;;;11.55;10.35;;;;;;;;;;5033770;28;20128;-59
2021/09/08 04:15:00;;;;;;;11.57;10.10;;;;;;;;;;5034094;28;20495;-58
2021/09/08 04:17:26;;;;;;;13.65;10.93;;;;;;;;;;5034138;28;20120;-59
2021/09/08 04:19:52;;;;;;;11.15;10.00;;;;;;;;;;5033779;28;20424;-59
2021/09/08 04:22:18;;;;;;;15.18;10.27;;;;;;;;;;5033826;28;20022;-58
2021/09/08 04:24:44;;;;;;;14.90;10.07;;;;;;;;;;5033700;28;20056;-58
2021/09/08 04:27:10;;;;;;;11.70;8.52;;;;;;;;;;5016019;28;20072;-58
2021/09/08 04:29:36;;;;;;;11.68;9.23;;;;;;;;;;5033683;28;20472;-58
2021/09/08 04:32:02;;;;;;;12.93;9.10;;;;;;;;;;5033622;28;20021;-58
2021/09/08 04:34:28;;;;;;;9.23;8.30;;;;;;;;;;5033593;28;20022;-58
2021/09/08 04:36:54;;;;;;;12.27;8.93;;;;;;;;;;5033244;28;20539;-58
2021/09/08 04:39:20;;;;;;;9.15;8.20;;;;;;;;;;5034084;28;20128;-59
2021/09/08 04:41:46;;;;;;;17.08;9.43;;;;;;;;;;5033916;28;20462;-58
2021/09/08 04:44:12;;;;;;;12.07;9.05;;;;;;;;;;5033806;28;20033;-58
2021/09/08 04:46:38;;;;;;;11.32;9.07;;;;;;;;;;5033569;28;20030;-59
2021/09/08 04:49:04;;;;;;;13.02;9.65;;;;;;;;;;5034016;28;20060;-59
2021/09/08 04:51:30;;;;;;;10.80;8.40;;;;;;;;;;5017416;28;20033;-59
2021/09/08 04:53:56;;;;;;;9.10;8.00;;;;;;;;;;5037318;28;20084;-58
2021/09/08 04:56:22;;;;;;;10.02;8.23;;;;;;;;;;5037398;28;20026;-58
2021/09/08 04:58:48;;;;;;;10.02;8.68;;;;;;;;;;5037367;28;20149;-58
2021/09/08 05:01:14;;;;;;;10.20;7.63;;;;;;;;;;5037338;28;20041;-59
2021/09/08 05:03:41;;;;;;;10.00;8.00;;;;;;;;;;5037475;28;20464;-58
2021/09/08 05:06:07;;;;;;;9.30;8.18;;;;;;;;;;5037250;28;20157;-59
2021/09/08 05:08:35;;;;;;;12.35;7.95;;;;;;;;;;5037278;28;20053;-59
2021/09/08 05:11:01;;;;;;;11.85;8.77;;;;;;;;;;5037471;28;20455;-59
2021/09/08 05:13:27;;;;;;;9.68;8.70;;;;;;;;;;5037385;28;20127;-59
2021/09/08 05:15:53;;;;;;;13.02;9.15;;;;;;;;;;5036871;28;20572;-58
2021/09/08 05:18:19;;;;;;;10.63;8.90;;;;;;;;;;5019546;28;20112;-59
2021/09/08 05:20:45;;;;;;;9.95;8.07;;;;;;;;;;5037513;28;20401;-58
2021/09/08 05:23:12;;;;;;;10.80;9.73;;;;;;;;;;5038091;28;20030;-58
2021/09/08 05:25:38;;;;;;;9.77;8.07;;;;;;;;;;5037476;28;20048;-58
2021/09/08 05:28:04;;;;;;;11.20;8.82;;;;;;;;;;5037081;28;20116;-58
2021/09/08 05:30:30;;;;;;;11.40;9.00;;;;;;;;;;5036682;28;20225;-58
2021/09/08 05:32:58;;;;;;;9.43;8.40;;;;;;;;;;5036494;28;20025;-59
2021/09/08 05:35:24;;;;;;;13.15;9.68;;;;;;;;;;5036680;28;20468;-59
2021/09/08 05:37:50;;;;;;;10.35;9.18;;;;;;;;;;5036561;28;20491;-59
2021/09/08 05:40:16;;;;;;;10.80;8.02;;;;;;;;;;5036623;28;20037;-59
2021/09/08 05:42:42;;;;;;;10.18;8.40;;;;;;;;;;5036848;28;20025;-59
2021/09/08 05:45:09;;;;;;;10.05;9.00;;;;;;;;;;5036512;28;20068;-59
2021/09/08 05:47:35;;;;;;;13.77;9.02;;;;;;;;;;5036364;28;20033;-59
2021/09/08 05:50:01;;;;;;;9.90;7.90;;;;;;;;;;5036113;28;20030;-59
2021/09/08 05:52:27;;;;;;;12.98;9.13;;;;;;;;;;5036352;28;20456;-59
2021/09/08 05:54:53;;;;;;;8.93;7.97;;;;;;;;;;5036344;28;20025;-59
2021/09/08 05:57:19;;;;;;;8.35;7.55;;;;;;;;;;5035879;28;20029;-59
2021/09/08 05:59:45;;;;;;;10.63;8.75;;;;;;;;;;5036001;28;20383;-59
2021/09/08 06:02:11;;;;;;;10.88;8.38;;;;;;;;;;5035812;28;20028;-59
2021/09/08 06:04:39;;;;;;;8.35;7.47;;;;;;;;;;5035824;28;20026;-59
2021/09/08 06:07:05;;;;;;;10.23;6.70;;;;;;;;;;5036680;28;20063;-59
2021/09/08 06:09:31;;;;;;;11.05;7.43;;;;;;;;;;5035765;28;20418;-59
2021/09/08 06:11:57;;;;;;;10.43;7.88;;;;;;;;;;5035790;28;20018;-59
2021/09/08 06:14:24;;;;;;;9.13;7.28;;;;;;;;;;5036020;28;20018;-59
2021/09/08 06:16:51;;;;;;;9.40;7.85;;;;;;;;;;5036581;28;20030;-59
2021/09/08 06:19:17;;;;;;;11.63;8.32;;;;;;;;;;5035877;28;20417;-59
2021/09/08 06:21:43;;;;;;;9.35;6.75;;;;;;;;;;5035915;28;20021;-59
2021/09/08 06:24:10;;;;;;;9.15;8.07;;;;;;;;;;5035809;28;20025;-59
2021/09/08 06:26:36;;;;;;;8.60;7.07;;;;;;;;;;5036597;28;20115;-59
2021/09/08 06:29:02;;;;;;;10.48;7.35;;;;;;;;;;5035769;28;20459;-59
2021/09/08 06:31:28;;;;;;;7.15;6.45;;;;;;;;;;5035625;28;20025;-59
2021/09/08 06:33:54;;;;;;;8.30;6.63;;;;;;;;;;5036496;28;20359;-59
2021/09/08 06:36:22;;;;;;;8.90;7.13;;;;;;;;;;5017579;28;20485;-59
2021/09/08 06:38:48;;;;;;;10.65;6.72;;;;;;;;;;5035330;28;20033;-59
2021/09/08 06:41:18;;;;;;;7.32;6.25;;;;;;;;;;5035429;28;20053;-59
2021/09/08 06:43:45;;;;;;;7.65;6.18;;;;;;;;;;5035850;28;20399;-58
2021/09/08 06:46:11;;;;;;;8.98;6.13;;;;;;;;;;5035404;28;20025;-58
2021/09/08 06:48:37;;;;;;;7.72;6.65;;;;;;;;;;5035422;28;20035;-59
2021/09/08 06:51:03;;;;;;;7.13;6.05;;;;;;;;;;5036112;28;20407;-59
2021/09/08 06:53:29;;;;;;;8.50;6.18;;;;;;;;;;5035692;28;20029;-59
2021/09/08 06:55:55;;;;;;;7.05;6.07;;;;;;;;;;5017793;28;20025;-59
2021/09/08 06:58:24;;;;;;;8.88;6.78;;;;;;;;;;5035350;28;20029;-59
2021/09/08 07:00:50;;;;;;;9.23;5.93;;;;;;;;;;5017420;28;20053;-59
2021/09/08 07:03:16;;;;;;;8.00;5.70;;;;;;;;;;5035398;28;20025;-59
2021/09/08 07:05:42;;;;;;;7.65;6.72;;;;;;;;;;5034849;28;20463;-59
2021/09/08 07:08:11;;;;;;;7.28;5.47;;;;;;;;;;5035268;28;20029;-59
2021/09/08 07:10:37;;;;;;;7.22;5.70;;;;;;;;;;5035089;28;20464;-58
2021/09/08 07:13:03;;;;;;;7.85;5.97;;;;;;;;;;5035439;28;20049;-58
2021/09/08 07:15:29;;;;;;;6.03;5.43;;;;;;;;;;5034374;28;20349;-59
2021/09/08 07:17:56;;;;;;;8.73;5.75;;;;;;;;;;5034223;28;20046;-59
2021/09/08 07:20:23;;;;;;;6.97;6.10;;;;;;;;;;5035375;28;20026;-59
2021/09/08 07:22:49;;;;;;;10.15;6.28;;;;;;;;;;5034756;28;20025;-59
2021/09/08 07:25:15;;;;;;;6.93;6.22;;;;;;;;;;5035002;28;20100;-58
2021/09/08 07:27:41;;;;;;;6.75;5.43;;;;;;;;;;5034580;28;20040;-59
2021/09/08 07:30:08;;;;;;;6.97;5.85;;;;;;;;;;5034501;28;20026;-59
2021/09/08 07:32:33;;;;;;;11.68;6.93;;;;;;;;;;5033691;28;20033;-58
2021/09/08 07:34:59;;;;;;;6.13;5.38;;;;;;;;;;5034945;28;20029;-59
2021/09/08 07:37:26;;;;;;;9.80;5.80;;;;;;;;;;5034279;28;20116;-59
2021/09/08 07:39:53;;;;;;;8.70;6.60;;;;;;;;;;5034710;28;20036;-59
2021/09/08 07:42:19;;;;;;;7.32;6.00;;;;;;;;;;5034453;28;20052;-59
2021/09/08 07:44:45;;;;;;;7.65;6.32;;;;;;;;;;5034365;28;20408;-59
2021/09/08 07:47:11;;;;;;;10.70;6.68;;;;;;;;;;5034811;28;20376;-59
2021/09/08 07:49:38;;;;;;;9.55;6.63;;;;;;;;;;5034570;28;20017;-59
2021/09/08 07:52:04;;;;;;;6.85;6.15;;;;;;;;;;5034280;28;20021;-59
2021/09/08 07:54:31;;;;;;;10.00;6.70;;;;;;;;;;5034059;28;20033;-59
2021/09/08 07:56:56;;;;;;;7.78;6.05;;;;;;;;;;5016347;28;20099;-58
2021/09/08 07:59:23;;;;;;;8.80;6.93;;;;;;;;;;5016898;28;20463;-59
2021/09/08 08:01:49;;;;;;;7.72;5.97;;;;;;;;;;5034083;28;20026;-59
2021/09/08 08:04:15;;;;;;;8.48;6.20;;;;;;;;;;5034037;28;20371;-59
2021/09/08 08:06:44;;;;;;;7.85;6.38;;;;;;;;;;5033942;28;20112;-59
2021/09/08 08:09:10;;;;;;;8.18;6.20;;;;;;;;;;5034231;28;20101;-59
2021/09/08 08:11:36;;;;;;;8.05;5.32;;;;;;;;;;5033834;28;20021;-59
2021/09/08 08:14:02;;;;;;;8.40;6.53;;;;;;;;;;5033964;28;20049;-59
2021/09/08 08:16:28;;;;;;;7.18;6.50;;;;;;;;;;5033706;28;20036;-59
2021/09/08 08:18:54;;;;;;;9.10;6.90;;;;;;;;;;5033839;28;20447;-59
2021/09/08 08:21:20;;;;;;;8.45;6.55;;;;;;;;;;5016243;28;20030;-59
2021/09/08 08:23:47;;;;;;;11.00;6.05;;;;;;;;;;5033518;28;20479;-59
2021/09/08 08:26:13;;;;;;;12.63;6.82;;;;;;;;;;5015690;28;20044;-59
2021/09/08 08:28:41;;;;;;;9.80;6.47;;;;;;;;;;5033722;28;20021;-59
2021/09/08 08:31:09;;;;;;;9.38;6.53;;;;;;;;;;5016355;28;20459;-59
2021/09/08 08:33:35;;;;;;;6.25;5.57;;;;;;;;;;5034054;28;20057;-59
2021/09/08 08:36:01;;;;;;;8.05;5.95;;;;;;;;;;5034172;28;20017;-59
2021/09/08 08:38:27;;;;;;;9.68;6.82;;;;;;;;;;5033476;28;20124;-59
2021/09/08 08:40:53;;;;;;;9.27;6.03;;;;;;;;;;5033583;28;20375;-59
2021/09/08 08:43:20;;;;;;;7.28;6.13;;;;;;;;;;5034067;28;20032;-59
2021/09/08 08:45:46;;;;;;;8.63;5.95;;;;;;;;;;5033817;28;20028;-59
2021/09/08 08:48:15;;;;;;;7.60;5.68;;;;;;;;;;5033491;28;20030;-59
2021/09/08 08:50:41;;;;;;;8.02;6.28;;;;;;;;;;5033796;28;20026;-59
2021/09/08 08:56:12;;;;;;;7.03;5.85;;;;;;;;;;4967203;28;20027;-59
2021/09/08 08:58:38;;;;;;;10.60;6.82;;;;;;;;;;4972290;28;20093;-59
2021/09/08 09:01:14;;;;;;;10.10;5.63;;;;;;;;;;5000659;28;20049;-59
2021/09/08 09:03:40;;;;;;;7.70;6.53;;;;;;;;;;5033316;28;20061;-59
2021/09/08 09:06:06;;;;;;;7.78;6.30;;;;;;;;;;5033391;28;20104;-59
2021/09/08 09:08:33;;;;;;;7.28;5.95;;;;;;;;;;5033857;28;20068;-59
2021/09/08 09:11:03;;;;;;;7.30;6.00;;;;;;;;;;5033543;28;20056;-59
2021/09/08 09:13:33;;;;;;;9.70;6.43;;;;;;;;;;5032967;28;20480;-59
2021/09/08 09:16:06;;;;;;;8.00;7.13;;;;;;;;;;5033292;28;20033;-59
2021/09/08 09:18:44;;;;;;;7.03;5.72;;;;;;;;;;5033187;28;20034;-59
2021/09/08 09:21:11;;;;;;;7.80;5.65;;;;;;;;;;5033737;28;20114;-59
2021/09/08 09:23:44;;;;;;;8.40;5.38;;;;;;;;;;5033192;28;20025;-59
2021/09/08 09:26:10;;;;;;;10.77;6.95;;;;;;;;;;5033140;28;20030;-59
2021/09/08 09:28:43;;;;;;;8.55;6.10;;;;;;;;;;5033143;28;20041;-59
2021/09/08 09:31:16;;;;;;;6.75;6.00;;;;;;;;;;5033053;28;20430;-59
2021/09/08 09:33:46;;;;;;;7.70;6.10;;;;;;;;;;5033883;28;20017;-59
2021/09/08 09:36:16;;;;;;;8.50;5.80;;;;;;;;;;5033619;28;20033;-59
2021/09/08 09:38:43;;;;;;;9.95;6.18;;;;;;;;;;5036167;28;20037;-59
2021/09/08 09:41:10;;;;;;;8.63;6.68;;;;;;;;;;5036848;28;20108;-59
2021/09/08 09:43:40;;;;;;;7.25;6.00;;;;;;;;;;5019777;28;20053;-59
2021/09/08 09:46:07;;;;;;;7.35;5.90;;;;;;;;;;5036898;28;20014;-59
2021/09/08 09:48:33;;;;;;;6.60;4.97;;;;;;;;;;5036826;28;20120;-59
2021/09/08 09:51:04;;;;;;;8.88;5.90;;;;;;;;;;5019527;28;20025;-59
2021/09/08 09:53:31;;;;;;;11.20;6.22;;;;;;;;;;5036711;28;20021;-59
2021/09/08 09:55:58;;;;;;;6.88;5.18;;;;;;;;;;5036176;28;20025;-59
2021/09/08 09:58:24;;;;;;;9.60;6.57;;;;;;;;;;5036343;28;20384;-59
2021/09/08 10:00:51;;;;;;;7.68;5.82;;;;;;;;;;5037111;28;20026;-59
2021/09/08 10:03:17;;;;;;;9.30;6.57;;;;;;;;;;5019108;28;20400;-59
2021/09/08 10:05:43;;;;;;;9.70;5.55;;;;;;;;;;5036268;28;20100;-59
2021/09/08 10:08:10;;;;;;;6.38;5.50;;;;;;;;;;5036364;28;20146;-59
2021/09/08 10:10:37;;;;;;;6.70;5.00;;;;;;;;;;5036232;28;20021;-59
2021/09/08 10:13:38;;;;;;;6.32;5.13;;;;;;;;;;5036304;28;20485;-59
2021/09/08 10:16:04;;;;;;;5.65;5.05;;;;;;;;;;4955616;28;20066;-59
2021/09/08 10:18:34;;;;;;;8.00;5.97;;;;;;;;;;5019638;28;20139;-59
2021/09/08 10:21:01;;;;;;;6.93;5.60;;;;;;;;;;5036003;28;20029;-59
2021/09/08 10:23:27;;;;;;;6.75;5.32;;;;;;;;;;5036479;28;20021;-59
2021/09/08 10:25:56;;;;;;;7.93;5.70;;;;;;;;;;5035898;28;20479;-59
2021/09/08 10:28:24;;;;;;;7.10;5.43;;;;;;;;;;5036057;28;20025;-59
2021/09/08 10:30:50;;;;;;;7.32;5.75;;;;;;;;;;5035681;28;20033;-59
2021/09/08 10:33:16;;;;;;;6.47;5.43;;;;;;;;;;5036343;28;20033;-59
2021/09/08 10:35:42;;;;;;;8.15;6.25;;;;;;;;;;5036468;28;20049;-59
2021/09/08 10:38:12;;;;;;;6.20;4.88;;;;;;;;;;5035581;28;20029;-59
2021/09/08 10:40:38;;;;;;;7.57;5.72;;;;;;;;;;5036238;28;20398;-59
2021/09/08 10:43:04;;;;;;;6.43;5.75;;;;;;;;;;5035792;28;20443;-59
2021/09/08 10:45:31;;;;;;;6.25;5.40;;;;;;;;;;5035930;28;20029;-59
2021/09/08 10:47:59;;;;;;;6.13;4.75;;;;;;;;;;5035414;28;20025;-59
2021/09/08 10:50:41;;;;;;;6.45;5.57;;;;;;;;;;5034845;28;20100;-59
2021/09/08 10:53:20;;;;;;;9.25;6.50;;;;;;;;;;5035386;28;20483;-59
2021/09/08 10:55:46;;;;;;;6.10;5.03;;;;;;;;;;5035242;28;20025;-59
2021/09/08 10:58:13;;;;;;;6.63;4.82;;;;;;;;;;5035193;28;20037;-59
2021/09/08 11:00:40;;;;;;;7.25;5.00;;;;;;;;;;5035285;28;20025;-59
2021/09/08 11:03:08;;;;;;;6.97;5.63;;;;;;;;;;5035751;28;20064;-59
2021/09/08 11:05:46;;;;;;;7.07;5.53;;;;;;;;;;5035128;28;20020;-59
2021/09/08 11:08:19;;;;;;;7.53;5.32;;;;;;;;;;5035791;28;20048;-59
2021/09/08 11:10:45;;;;;;;6.90;5.38;;;;;;;;;;5035553;28;20021;-59
2021/09/08 11:13:11;;;;;;;5.85;4.95;;;;;;;;;;5035121;28;20098;-59
2021/09/08 11:15:38;;;;;;;6.60;4.55;;;;;;;;;;5034871;28;20434;-59
2021/09/08 11:18:09;;;;;;;6.45;4.90;;;;;;;;;;5035065;28;20029;-59
2021/09/08 11:20:34;;;;;;;5.93;4.53;;;;;;;;;;5035232;28;20053;-59
2021/09/08 11:23:04;;;;;;;8.88;5.45;;;;;;;;;;5035060;28;20479;-59
2021/09/08 11:25:34;;;;;;;6.10;4.47;;;;;;;;;;5035223;28;20025;-59
2021/09/08 11:28:00;;;;;;;6.57;4.40;;;;;;;;;;5034556;28;20060;-59
2021/09/08 11:30:34;;;;;;;6.25;5.47;;;;;;;;;;5034514;28;20021;-59
2021/09/08 11:33:01;;;;;;;7.38;5.13;;;;;;;;;;5034905;28;20379;-59
2021/09/08 11:35:46;;;;;;;7.93;5.28;;;;;;;;;;5034515;28;20021;-59
2021/09/08 11:38:12;;;;;;;7.97;4.50;;;;;;;;;;5034326;28;20041;-59
2021/09/08 11:40:42;;;;;;;6.38;5.35;;;;;;;;;;5034842;28;20100;-59
2021/09/08 11:43:08;;;;;;;7.22;5.85;;;;;;;;;;5034934;28;20026;-59
2021/09/08 11:45:34;;;;;;;6.80;4.85;;;;;;;;;;5017459;28;20467;-59
2021/09/08 11:48:00;;;;;;;10.23;5.65;;;;;;;;;;5034274;28;20205;-59
2021/09/08 11:50:26;;;;;;;6.25;5.60;;;;;;;;;;5034293;28;20371;-59
2021/09/08 11:52:56;;;;;;;6.60;5.38;;;;;;;;;;5034808;28;20021;-60
2021/09/08 11:55:26;;;;;;;5.57;4.68;;;;;;;;;;5034424;28;20025;-59
2021/09/08 11:57:52;;;;;;;6.47;5.47;;;;;;;;;;5034046;28;20120;-59
2021/09/08 12:00:18;;;;;;;6.43;5.15;;;;;;;;;;5033874;28;20109;-59
2021/09/08 12:02:44;;;;;;;6.88;5.63;;;;;;;;;;5033860;28;20112;-59
2021/09/08 12:05:20;;;;;;;6.57;5.18;;;;;;;;;;5034077;28;20039;-59
2021/09/08 12:07:46;;;;;;;8.43;5.32;;;;;;;;;;5034493;28;20025;-60
2021/09/08 12:10:12;;;;;;;8.30;5.53;;;;;;;;;;5033907;28;20367;-60
2021/09/08 12:12:38;;;;;;;7.03;5.25;;;;;;;;;;5034319;28;20046;-60
2021/09/08 12:15:04;;;;;;;5.20;4.28;;;;;;;;;;5033981;28;20056;-60
2021/09/08 12:17:32;;;;;;;11.20;4.97;;;;;;;;;;5033784;28;20077;-60
2021/09/08 12:20:03;;;;;;;8.18;4.47;;;;;;;;;;5034097;28;20468;-59
2021/09/08 12:22:33;;;;;;;6.15;4.47;;;;;;;;;;5033820;28;20133;-60
2021/09/08 12:25:01;;;;;;;6.25;4.20;;;;;;;;;;5034118;28;20021;-60
2021/09/08 12:27:28;;;;;;;7.55;4.70;;;;;;;;;;5034001;28;20040;-60
2021/09/08 12:29:55;;;;;;;5.43;4.53;;;;;;;;;;5034493;28;20066;-59
2021/09/08 12:32:21;;;;;;;5.97;4.53;;;;;;;;;;5033709;28;20022;-59
2021/09/08 12:34:48;;;;;;;6.47;4.82;;;;;;;;;;5033682;28;20430;-60
2021/09/08 12:37:15;;;;;;;5.68;4.45;;;;;;;;;;5033249;28;20444;-59
2021/09/08 12:39:52;;;;;;;7.40;4.78;;;;;;;;;;5033925;28;20424;-59
2021/09/08 12:42:21;;;;;;;5.63;4.38;;;;;;;;;;5034011;28;20025;-59
2021/09/08 12:44:47;;;;;;;4.68;4.18;;;;;;;;;;5033498;28;20026;-59
2021/09/08 12:47:15;;;;;;;6.95;4.50;;;;;;;;;;5033387;28;20028;-59
2021/09/08 12:49:41;;;;;;;8.13;4.95;;;;;;;;;;5033771;28;20029;-59
2021/09/08 12:52:12;;;;;;;5.25;4.22;;;;;;;;;;5034400;28;20384;-59
2021/09/08 12:54:38;;;;;;;5.63;3.97;;;;;;;;;;5033471;28;20025;-59
2021/09/08 12:57:06;;;;;;;4.10;3.67;;;;;;;;;;5033292;28;20080;-59
2021/09/08 12:59:34;;;;;;;8.48;4.93;;;;;;;;;;5033914;28;20021;-59
2021/09/08 13:02:01;;;;;;;5.22;4.00;;;;;;;;;;5033964;28;20033;-59
2021/09/08 13:04:27;;;;;;;7.03;4.28;;;;;;;;;;5033941;28;20356;-59
2021/09/08 13:06:53;;;;;;;5.53;3.65;;;;;;;;;;5033036;28;20471;-59
2021/09/08 13:09:19;;;;;;;5.05;3.92;;;;;;;;;;5033387;28;20030;-59
2021/09/08 13:11:47;;;;;;;5.97;4.65;;;;;;;;;;5034334;28;20348;-57
2021/09/08 13:14:13;;;;;;;6.28;4.63;;;;;;;;;;5037829;28;20361;-57
2021/09/08 13:16:39;;;;;;;5.22;3.70;;;;;;;;;;5037091;28;20415;-57
2021/09/08 13:19:06;;;;;;;5.38;3.80;;;;;;;;;;5036774;28;20025;-57
2021/09/08 13:21:33;;;;;;;5.57;4.30;;;;;;;;;;5037032;28;20468;-57
2021/09/08 13:23:59;;;;;;;5.28;4.03;;;;;;;;;;5037125;28;20025;-57
2021/09/08 13:26:25;;;;;;;8.13;4.60;;;;;;;;;;5036921;28;20021;-58
2021/09/08 13:28:51;;;;;;;4.78;3.80;;;;;;;;;;5037738;28;20039;-57
2021/09/08 13:31:20;;;;;;;4.15;3.75;;;;;;;;;;5036816;28;20076;-58
2021/09/08 13:33:46;;;;;;;4.93;3.80;;;;;;;;;;5037242;28;20021;-57
2021/09/08 13:36:13;;;;;;;5.72;3.63;;;;;;;;;;5036843;28;20080;-57
2021/09/08 13:38:39;;;;;;;4.80;3.42;;;;;;;;;;5036744;28;20029;-57
2021/09/08 13:41:07;;;;;;;6.60;3.92;;;;;;;;;;5036718;28;20048;-57
2021/09/08 13:43:34;;;;;;;4.97;3.03;;;;;;;;;;5037524;28;20407;-57
2021/09/08 13:45:59;;;;;;;4.90;3.33;;;;;;;;;;5036490;28;20025;-57
2021/09/08 13:48:29;;;;;;;3.40;3.00;;;;;;;;;;5036634;28;20029;-57
2021/09/08 13:50:55;;;;;;;4.90;3.92;;;;;;;;;;5036263;28;20095;-58
2021/09/08 13:53:21;;;;;;;6.55;3.30;;;;;;;;;;5036814;28;20025;-57
2021/09/08 13:55:47;;;;;;;6.43;2.90;;;;;;;;;;5036473;28;20030;-59
2021/09/08 13:58:13;;;;;;;4.30;3.17;;;;;;;;;;5035950;28;20390;-59
2021/09/08 14:00:39;;;;;;;3.78;2.85;;;;;;;;;;5036378;28;20101;-59
2021/09/08 14:03:06;;;;;;;5.65;3.55;;;;;;;;;;5036965;28;20052;-59
2021/09/08 14:05:32;;;;;;;4.90;3.28;;;;;;;;;;5036279;28;20053;-59
2021/09/08 14:07:59;;;;;;;6.05;2.95;;;;;;;;;;5036358;28;20029;-59
2021/09/08 14:10:25;;;;;;;4.40;3.10;;;;;;;;;;5018569;28;20021;-59
2021/09/08 14:12:52;;;;;;;4.80;3.38;;;;;;;;;;5035935;28;20061;-59
2021/09/08 14:15:18;;;;;;;3.78;2.70;;;;;;;;;;5036488;28;20036;-59
2021/09/08 14:17:46;;;;;;;6.10;3.88;;;;;;;;;;5035951;28;20371;-59
2021/09/08 14:20:12;;;;;;;3.42;2.58;;;;;;;;;;5035858;28;20534;-59
2021/09/08 14:22:38;;;;;;;5.65;3.47;;;;;;;;;;5036317;28;20029;-59
2021/09/08 14:25:04;;;;;;;5.03;3.55;;;;;;;;;;5035019;28;20155;-59
2021/09/08 14:27:30;;;;;;;4.80;3.30;;;;;;;;;;5035937;28;20029;-59
2021/09/08 14:29:56;;;;;;;4.30;3.53;;;;;;;;;;5035578;28;20027;-59
2021/09/08 14:32:22;;;;;;;6.20;3.28;;;;;;;;;;5036085;28;20029;-59
2021/09/08 14:34:48;;;;;;;3.97;3.15;;;;;;;;;;5035792;28;20026;-59